sensor_id;sensor_type;location;lat;lon;timestamp;temperature;humidity
55648;DHT22;45266;48.756;9.246;2023-03-24T00:01:01;11.60;99.90
55648;DHT22;45266;48.756;9.246;2023-03-24T00:02:03;11.60;99.90
55648;DHT22;45266;48.756;9.246;2023-03-24T00:03:05;11.60;99.90
55648;DHT22;45266;48.756;9.246;2023-03-24T00:04:08;11.60;99.90
55648;DHT22;45266;48.756;9.246;2023-03-24T00:05:20;11.60;99.90
55648;DHT22;45266;48.756;9.246;2023-03-24T00:06:22;11.50;99.90
55648;DHT22;45266;48.756;9.246;2023-03-24T00:07:24;11.50;99.90
55648;DHT22;45266;48.756;9.246;2023-03-24T00:08:28;11.50;99.90
55648;DHT22;45266;48.756;9.246;2023-03-24T00:09:31;11.50;99.90
55648;DHT22;45266;48.756;9.246;2023-03-24T00:10:33;11.50;99.90
55648;DHT22;45266;48.756;9.246;2023-03-24T00:11:35;11.50;99.90
55648;DHT22;45266;48.756;9.246;2023-03-24T00:12:37;11.50;99.90
55648;DHT22;45266;48.756;9.246;2023-03-24T00:13:40;11.50;99.90
55648;DHT22;45266;48.756;9.246;2023-03-24T00:14:42;11.50;99.90
55648;DHT22;45266;48.756;9.246;2023-03-24T00:15:44;11.50;99.90
55648;DHT22;45266;48.756;9.246;2023-03-24T00:16:45;11.50;99.90
55648;DHT22;45266;48.756;9.246;2023-03-24T00:17:48;11.40;99.90
55648;DHT22;45266;48.756;9.246;2023-03-24T00:18:53;11.40;99.90
55648;DHT22;45266;48.756;9.246;2023-03-24T00:19:55;11.40;99.90
55648;DHT22;45266;48.756;9.246;2023-03-24T00:20:58;11.40;99.90
55648;DHT22;45266;48.756;9.246;2023-03-24T00:22:00;11.40;99.90
55648;DHT22;45266;48.756;9.246;2023-03-24T00:23:02;11.40;99.90
55648;DHT22;45266;48.756;9.246;2023-03-24T00:24:05;11.40;99.90
55648;DHT22;45266;48.756;9.246;2023-03-24T00:25:10;11.40;99.90
55648;DHT22;45266;48.756;9.246;2023-03-24T00:26:13;11.30;99.90
55648;DHT22;45266;48.756;9.246;2023-03-24T00:27:16;11.30;99.90
55648;DHT22;45266;48.756;9.246;2023-03-24T00:28:19;11.30;99.90
55648;DHT22;45266;48.756;9.246;2023-03-24T00:29:21;11.30;99.90
55648;DHT22;45266;48.756;9.246;2023-03-24T00:30:23;11.30;99.90
55648;DHT22;45266;48.756;9.246;2023-03-24T00:31:25;11.30;99.90
55648;DHT22;45266;48.756;9.246;2023-03-24T00:32:28;11.30;99.90
55648;DHT22;45266;48.756;9.246;2023-03-24T00:33:31;11.30;99.90
55648;DHT22;45266;48.756;9.246;2023-03-24T00:34:35;11.30;99.90
55648;DHT22;45266;48.756;9.246;2023-03-24T00:35:39;11.30;99.90
55648;DHT22;45266;48.756;9.246;2023-03-24T00:36:41;11.30;99.90
55648;DHT22;45266;48.756;9.246;2023-03-24T00:37:43;11.30;99.90
55648;DHT22;45266;48.756;9.246;2023-03-24T00:38:45;11.30;99.90
55648;DHT22;45266;48.756;9.246;2023-03-24T00:39:48;11.30;99.90
55648;DHT22;45266;48.756;9.246;2023-03-24T00:40:51;11.30;99.90
55648;DHT22;45266;48.756;9.246;2023-03-24T00:41:53;11.20;99.90
55648;DHT22;45266;48.756;9.246;2023-03-24T00:42:59;11.30;99.90
55648;DHT22;45266;48.756;9.246;2023-03-24T00:44:01;11.20;99.90
55648;DHT22;45266;48.756;9.246;2023-03-24T00:45:07;11.20;99.90
55648;DHT22;45266;48.756;9.246;2023-03-24T00:46:14;11.10;99.90
55648;DHT22;45266;48.756;9.246;2023-03-24T00:47:28;11.10;99.90
55648;DHT22;45266;48.756;9.246;2023-03-24T00:48:30;11.10;99.90
55648;DHT22;45266;48.756;9.246;2023-03-24T00:49:32;11.10;99.90
55648;DHT22;45266;48.756;9.246;2023-03-24T00:50:47;11.10;99.90
55648;DHT22;45266;48.756;9.246;2023-03-24T00:51:49;11.00;99.90
55648;DHT22;45266;48.756;9.246;2023-03-24T00:52:52;11.10;99.90
55648;DHT22;45266;48.756;9.246;2023-03-24T00:53:55;11.10;99.90
55648;DHT22;45266;48.756;9.246;2023-03-24T00:54:59;11.10;99.90
55648;DHT22;45266;48.756;9.246;2023-03-24T00:56:02;10.90;99.90
55648;DHT22;45266;48.756;9.246;2023-03-24T00:57:05;11.00;99.90
55648;DHT22;45266;48.756;9.246;2023-03-24T00:58:07;11.00;99.90
55648;DHT22;45266;48.756;9.246;2023-03-24T00:59:09;11.00;99.90
55648;DHT22;45266;48.756;9.246;2023-03-24T01:00:16;11.00;99.90
55648;DHT22;45266;48.756;9.246;2023-03-24T01:01:19;11.00;99.90
55648;DHT22;45266;48.756;9.246;2023-03-24T01:02:25;11.00;99.90
55648;DHT22;45266;48.756;9.246;2023-03-24T01:03:28;10.90;99.90
55648;DHT22;45266;48.756;9.246;2023-03-24T01:04:30;10.90;99.90
55648;DHT22;45266;48.756;9.246;2023-03-24T01:05:32;10.90;99.90
55648;DHT22;45266;48.756;9.246;2023-03-24T01:06:38;10.90;99.90
55648;DHT22;45266;48.756;9.246;2023-03-24T01:07:40;10.80;99.90
55648;DHT22;45266;48.756;9.246;2023-03-24T01:08:44;10.80;99.90
55648;DHT22;45266;48.756;9.246;2023-03-24T01:09:46;10.80;99.90
55648;DHT22;45266;48.756;9.246;2023-03-24T01:10:52;10.80;99.90
55648;DHT22;45266;48.756;9.246;2023-03-24T01:11:54;10.70;99.90
55648;DHT22;45266;48.756;9.246;2023-03-24T01:12:58;10.70;99.90
55648;DHT22;45266;48.756;9.246;2023-03-24T01:14:00;10.70;99.90
55648;DHT22;45266;48.756;9.246;2023-03-24T01:15:12;10.70;99.90
55648;DHT22;45266;48.756;9.246;2023-03-24T01:16:15;10.60;99.90
55648;DHT22;45266;48.756;9.246;2023-03-24T01:17:19;10.60;99.90
55648;DHT22;45266;48.756;9.246;2023-03-24T01:18:23;10.60;99.90
55648;DHT22;45266;48.756;9.246;2023-03-24T01:19:25;10.60;99.90
55648;DHT22;45266;48.756;9.246;2023-03-24T01:20:28;10.60;99.90
55648;DHT22;45266;48.756;9.246;2023-03-24T01:21:35;10.50;99.90
55648;DHT22;45266;48.756;9.246;2023-03-24T01:22:39;10.60;99.90
55648;DHT22;45266;48.756;9.246;2023-03-24T01:23:41;10.50;99.90
55648;DHT22;45266;48.756;9.246;2023-03-24T01:24:43;10.50;99.90
55648;DHT22;45266;48.756;9.246;2023-03-24T01:25:45;10.50;99.90
55648;DHT22;45266;48.756;9.246;2023-03-24T01:26:48;10.50;99.90
55648;DHT22;45266;48.756;9.246;2023-03-24T01:27:51;10.50;99.90
55648;DHT22;45266;48.756;9.246;2023-03-24T01:28:53;10.50;99.90
55648;DHT22;45266;48.756;9.246;2023-03-24T01:30:01;10.40;99.90
55648;DHT22;45266;48.756;9.246;2023-03-24T01:31:03;10.40;99.90
55648;DHT22;45266;48.756;9.246;2023-03-24T01:32:05;10.40;99.90
55648;DHT22;45266;48.756;9.246;2023-03-24T01:33:08;10.40;99.90
55648;DHT22;45266;48.756;9.246;2023-03-24T01:34:10;10.30;99.90
55648;DHT22;45266;48.756;9.246;2023-03-24T01:35:16;10.30;99.90
55648;DHT22;45266;48.756;9.246;2023-03-24T01:36:18;10.30;99.90
55648;DHT22;45266;48.756;9.246;2023-03-24T01:37:20;10.30;99.90
55648;DHT22;45266;48.756;9.246;2023-03-24T01:38:24;10.30;99.90
55648;DHT22;45266;48.756;9.246;2023-03-24T01:39:29;10.20;99.90
55648;DHT22;45266;48.756;9.246;2023-03-24T01:40:32;10.30;99.90
55648;DHT22;45266;48.756;9.246;2023-03-24T01:41:37;10.30;99.90
55648;DHT22;45266;48.756;9.246;2023-03-24T01:42:42;10.30;99.90
55648;DHT22;45266;48.756;9.246;2023-03-24T01:43:44;10.30;99.90
55648;DHT22;45266;48.756;9.246;2023-03-24T01:44:48;10.30;99.90
55648;DHT22;45266;48.756;9.246;2023-03-24T01:46:53;10.30;99.90
55648;DHT22;45266;48.756;9.246;2023-03-24T01:47:55;10.30;99.90
55648;DHT22;45266;48.756;9.246;2023-03-24T01:49:01;10.30;99.90
55648;DHT22;45266;48.756;9.246;2023-03-24T01:50:05;10.30;99.90
55648;DHT22;45266;48.756;9.246;2023-03-24T01:52:30;10.30;99.90
55648;DHT22;45266;48.756;9.246;2023-03-24T01:53:37;10.30;99.90
55648;DHT22;45266;48.756;9.246;2023-03-24T01:55:00;10.30;99.90
55648;DHT22;45266;48.756;9.246;2023-03-24T01:56:05;10.10;99.90
55648;DHT22;45266;48.756;9.246;2023-03-24T01:58:16;10.20;99.90
55648;DHT22;45266;48.756;9.246;2023-03-24T01:59:22;10.20;99.90
55648;DHT22;45266;48.756;9.246;2023-03-24T02:00:25;10.30;99.90
55648;DHT22;45266;48.756;9.246;2023-03-24T02:01:29;10.20;99.90
55648;DHT22;45266;48.756;9.246;2023-03-24T02:02:31;10.20;99.90
55648;DHT22;45266;48.756;9.246;2023-03-24T02:03:36;10.20;99.90
55648;DHT22;45266;48.756;9.246;2023-03-24T02:04:43;10.20;99.90
55648;DHT22;45266;48.756;9.246;2023-03-24T02:05:49;10.20;99.90
55648;DHT22;45266;48.756;9.246;2023-03-24T02:06:53;10.20;99.90
55648;DHT22;45266;48.756;9.246;2023-03-24T02:09:15;10.10;99.90
55648;DHT22;45266;48.756;9.246;2023-03-24T02:10:19;10.10;99.90
55648;DHT22;45266;48.756;9.246;2023-03-24T02:11:24;10.10;99.90
55648;DHT22;45266;48.756;9.246;2023-03-24T02:12:27;10.10;99.90
55648;DHT22;45266;48.756;9.246;2023-03-24T02:13:30;10.10;99.90
55648;DHT22;45266;48.756;9.246;2023-03-24T02:14:31;10.10;99.90
55648;DHT22;45266;48.756;9.246;2023-03-24T02:16:01;10.20;99.90
55648;DHT22;45266;48.756;9.246;2023-03-24T02:21:42;10.20;99.90
55648;DHT22;45266;48.756;9.246;2023-03-24T02:23:32;10.20;99.90
55648;DHT22;45266;48.756;9.246;2023-03-24T02:27:33;10.20;99.90
55648;DHT22;45266;48.756;9.246;2023-03-24T02:31:38;10.20;99.90
55648;DHT22;45266;48.756;9.246;2023-03-24T02:41:31;10.10;99.90
55648;DHT22;45266;48.756;9.246;2023-03-24T02:42:51;10.10;99.90
55648;DHT22;45266;48.756;9.246;2023-03-24T02:44:07;10.10;99.90
55648;DHT22;45266;48.756;9.246;2023-03-24T02:46:47;10.10;99.90
55648;DHT22;45266;48.756;9.246;2023-03-24T02:48:02;10.10;99.90
55648;DHT22;45266;48.756;9.246;2023-03-24T02:50:31;10.00;99.90
55648;DHT22;45266;48.756;9.246;2023-03-24T02:51:58;10.00;99.90
55648;DHT22;45266;48.756;9.246;2023-03-24T02:53:28;10.00;99.90
55648;DHT22;45266;48.756;9.246;2023-03-24T02:56:10;10.00;99.90
55648;DHT22;45266;48.756;9.246;2023-03-24T02:57:35;10.00;99.90
55648;DHT22;45266;48.756;9.246;2023-03-24T02:58:51;10.00;99.90
55648;DHT22;45266;48.756;9.246;2023-03-24T03:00:00;10.00;99.90
55648;DHT22;45266;48.756;9.246;2023-03-24T03:01:46;10.00;99.90
55648;DHT22;45266;48.756;9.246;2023-03-24T03:03:13;10.00;99.90
55648;DHT22;45266;48.756;9.246;2023-03-24T03:04:29;10.00;99.90
55648;DHT22;45266;48.756;9.246;2023-03-24T03:05:48;10.00;99.90
55648;DHT22;45266;48.756;9.246;2023-03-24T03:06:54;10.00;99.90
55648;DHT22;45266;48.756;9.246;2023-03-24T03:08:00;10.00;99.90
55648;DHT22;45266;48.756;9.246;2023-03-24T03:09:07;10.00;99.90
55648;DHT22;45266;48.756;9.246;2023-03-24T03:10:26;9.90;99.90
55648;DHT22;45266;48.756;9.246;2023-03-24T03:11:30;10.00;99.90
55648;DHT22;45266;48.756;9.246;2023-03-24T03:12:34;9.90;99.90
55648;DHT22;45266;48.756;9.246;2023-03-24T03:13:41;9.90;99.90
55648;DHT22;45266;48.756;9.246;2023-03-24T03:15:00;9.90;99.90
55648;DHT22;45266;48.756;9.246;2023-03-24T03:16:29;9.90;99.90
55648;DHT22;45266;48.756;9.246;2023-03-24T03:17:41;9.90;99.90
55648;DHT22;45266;48.756;9.246;2023-03-24T03:18:55;9.90;99.90
55648;DHT22;45266;48.756;9.246;2023-03-24T03:20:15;9.90;99.90
55648;DHT22;45266;48.756;9.246;2023-03-24T03:21:22;9.90;99.90
55648;DHT22;45266;48.756;9.246;2023-03-24T03:22:29;9.90;99.90
55648;DHT22;45266;48.756;9.246;2023-03-24T03:23:35;9.90;99.90
55648;DHT22;45266;48.756;9.246;2023-03-24T03:24:40;9.90;99.90
55648;DHT22;45266;48.756;9.246;2023-03-24T03:25:47;9.90;99.90
55648;DHT22;45266;48.756;9.246;2023-03-24T03:26:59;9.90;99.90
55648;DHT22;45266;48.756;9.246;2023-03-24T03:28:04;9.90;99.90
55648;DHT22;45266;48.756;9.246;2023-03-24T03:29:19;9.90;99.90
55648;DHT22;45266;48.756;9.246;2023-03-24T03:30:33;9.90;99.90
55648;DHT22;45266;48.756;9.246;2023-03-24T03:31:41;9.90;99.90
55648;DHT22;45266;48.756;9.246;2023-03-24T03:32:50;9.90;99.90
55648;DHT22;45266;48.756;9.246;2023-03-24T03:34:11;9.90;99.90
55648;DHT22;45266;48.756;9.246;2023-03-24T03:36:36;9.90;99.90
55648;DHT22;45266;48.756;9.246;2023-03-24T03:39:10;9.90;99.90
55648;DHT22;45266;48.756;9.246;2023-03-24T03:40:21;9.90;99.90
55648;DHT22;45266;48.756;9.246;2023-03-24T03:41:24;9.90;99.90
55648;DHT22;45266;48.756;9.246;2023-03-24T03:42:25;9.90;99.90
55648;DHT22;45266;48.756;9.246;2023-03-24T03:43:30;9.90;99.90
55648;DHT22;45266;48.756;9.246;2023-03-24T03:44:33;9.90;99.90
55648;DHT22;45266;48.756;9.246;2023-03-24T03:45:35;9.90;99.90
55648;DHT22;45266;48.756;9.246;2023-03-24T03:46:37;9.90;99.90
55648;DHT22;45266;48.756;9.246;2023-03-24T03:47:39;9.90;99.90
55648;DHT22;45266;48.756;9.246;2023-03-24T03:48:42;9.90;99.90
55648;DHT22;45266;48.756;9.246;2023-03-24T03:49:44;9.90;99.90
55648;DHT22;45266;48.756;9.246;2023-03-24T03:50:46;9.90;99.90
55648;DHT22;45266;48.756;9.246;2023-03-24T03:51:50;9.90;99.90
55648;DHT22;45266;48.756;9.246;2023-03-24T03:52:52;9.90;99.90
55648;DHT22;45266;48.756;9.246;2023-03-24T03:54:01;9.90;99.90
55648;DHT22;45266;48.756;9.246;2023-03-24T03:55:04;9.90;99.90
55648;DHT22;45266;48.756;9.246;2023-03-24T03:56:07;9.90;99.90
55648;DHT22;45266;48.756;9.246;2023-03-24T03:57:11;9.90;99.90
55648;DHT22;45266;48.756;9.246;2023-03-24T03:58:13;9.90;99.90
55648;DHT22;45266;48.756;9.246;2023-03-24T04:00:25;9.90;99.90
55648;DHT22;45266;48.756;9.246;2023-03-24T04:01:29;9.90;99.90
55648;DHT22;45266;48.756;9.246;2023-03-24T04:19:12;9.90;99.90
55648;DHT22;45266;48.756;9.246;2023-03-24T04:21:23;9.90;99.90
55648;DHT22;45266;48.756;9.246;2023-03-24T04:24:54;9.90;99.90
55648;DHT22;45266;48.756;9.246;2023-03-24T04:26:26;9.90;99.90
55648;DHT22;45266;48.756;9.246;2023-03-24T04:27:57;9.90;99.90
55648;DHT22;45266;48.756;9.246;2023-03-24T04:30:48;9.90;99.90
55648;DHT22;45266;48.756;9.246;2023-03-24T04:32:06;9.90;99.90
55648;DHT22;45266;48.756;9.246;2023-03-24T04:33:19;9.90;99.90
55648;DHT22;45266;48.756;9.246;2023-03-24T04:34:34;9.90;99.90
55648;DHT22;45266;48.756;9.246;2023-03-24T04:35:41;9.90;99.90
55648;DHT22;45266;48.756;9.246;2023-03-24T04:37:10;9.90;99.90
55648;DHT22;45266;48.756;9.246;2023-03-24T04:38:19;9.90;99.90
55648;DHT22;45266;48.756;9.246;2023-03-24T04:39:27;10.00;99.90
55648;DHT22;45266;48.756;9.246;2023-03-24T04:40:35;9.90;99.90
55648;DHT22;45266;48.756;9.246;2023-03-24T04:41:39;10.00;99.90
55648;DHT22;45266;48.756;9.246;2023-03-24T04:42:46;10.00;99.90
55648;DHT22;45266;48.756;9.246;2023-03-24T04:43:49;10.00;99.90
55648;DHT22;45266;48.756;9.246;2023-03-24T04:44:52;10.00;99.90
55648;DHT22;45266;48.756;9.246;2023-03-24T04:45:54;10.00;99.90
55648;DHT22;45266;48.756;9.246;2023-03-24T04:47:00;10.00;99.90
55648;DHT22;45266;48.756;9.246;2023-03-24T04:48:06;10.00;99.90
55648;DHT22;45266;48.756;9.246;2023-03-24T04:49:09;10.00;99.90
55648;DHT22;45266;48.756;9.246;2023-03-24T04:50:12;10.00;99.90
55648;DHT22;45266;48.756;9.246;2023-03-24T04:51:16;10.10;99.90
55648;DHT22;45266;48.756;9.246;2023-03-24T04:52:18;10.10;99.90
55648;DHT22;45266;48.756;9.246;2023-03-24T04:53:19;10.10;99.90
55648;DHT22;45266;48.756;9.246;2023-03-24T04:54:22;10.10;99.90
55648;DHT22;45266;48.756;9.246;2023-03-24T04:56:54;10.10;99.90
55648;DHT22;45266;48.756;9.246;2023-03-24T04:57:57;10.10;99.90
55648;DHT22;45266;48.756;9.246;2023-03-24T04:59:02;10.10;99.90
55648;DHT22;45266;48.756;9.246;2023-03-24T05:00:04;10.10;99.90
55648;DHT22;45266;48.756;9.246;2023-03-24T05:01:08;10.10;99.90
55648;DHT22;45266;48.756;9.246;2023-03-24T05:02:10;10.10;99.90
55648;DHT22;45266;48.756;9.246;2023-03-24T05:03:13;10.10;99.90
55648;DHT22;45266;48.756;9.246;2023-03-24T05:04:21;10.10;99.90
55648;DHT22;45266;48.756;9.246;2023-03-24T05:05:23;10.10;99.90
55648;DHT22;45266;48.756;9.246;2023-03-24T05:06:25;10.10;99.90
55648;DHT22;45266;48.756;9.246;2023-03-24T05:07:28;10.10;99.90
55648;DHT22;45266;48.756;9.246;2023-03-24T05:08:29;10.10;99.90
55648;DHT22;45266;48.756;9.246;2023-03-24T05:09:32;10.10;99.90
55648;DHT22;45266;48.756;9.246;2023-03-24T05:10:34;10.10;99.90
55648;DHT22;45266;48.756;9.246;2023-03-24T05:11:36;10.20;99.90
55648;DHT22;45266;48.756;9.246;2023-03-24T05:12:38;10.20;99.90
55648;DHT22;45266;48.756;9.246;2023-03-24T05:13:40;10.20;99.90
55648;DHT22;45266;48.756;9.246;2023-03-24T05:14:42;10.20;99.90
55648;DHT22;45266;48.756;9.246;2023-03-24T05:15:43;10.20;99.90
55648;DHT22;45266;48.756;9.246;2023-03-24T05:16:46;10.30;99.90
55648;DHT22;45266;48.756;9.246;2023-03-24T05:17:48;10.30;99.90
55648;DHT22;45266;48.756;9.246;2023-03-24T05:18:52;10.30;99.90
55648;DHT22;45266;48.756;9.246;2023-03-24T05:19:54;10.30;99.90
55648;DHT22;45266;48.756;9.246;2023-03-24T05:20:55;10.30;99.90
55648;DHT22;45266;48.756;9.246;2023-03-24T05:21:57;10.40;99.90
55648;DHT22;45266;48.756;9.246;2023-03-24T05:22:59;10.40;99.90
55648;DHT22;45266;48.756;9.246;2023-03-24T05:24:02;10.50;99.90
55648;DHT22;45266;48.756;9.246;2023-03-24T05:25:05;10.60;99.90
55648;DHT22;45266;48.756;9.246;2023-03-24T05:26:07;10.80;99.90
55648;DHT22;45266;48.756;9.246;2023-03-24T05:27:09;11.00;99.90
55648;DHT22;45266;48.756;9.246;2023-03-24T05:28:11;11.20;99.90
55648;DHT22;45266;48.756;9.246;2023-03-24T05:29:12;11.30;99.90
55648;DHT22;45266;48.756;9.246;2023-03-24T05:30:15;11.50;99.90
55648;DHT22;45266;48.756;9.246;2023-03-24T05:31:16;11.60;99.90
55648;DHT22;45266;48.756;9.246;2023-03-24T05:32:18;11.70;99.90
55648;DHT22;45266;48.756;9.246;2023-03-24T05:33:20;11.80;99.90
55648;DHT22;45266;48.756;9.246;2023-03-24T05:34:22;11.90;99.90
55648;DHT22;45266;48.756;9.246;2023-03-24T05:35:24;12.00;99.90
55648;DHT22;45266;48.756;9.246;2023-03-24T05:36:26;12.10;99.90
55648;DHT22;45266;48.756;9.246;2023-03-24T05:37:28;12.10;99.90
55648;DHT22;45266;48.756;9.246;2023-03-24T05:38:30;12.20;99.90
55648;DHT22;45266;48.756;9.246;2023-03-24T05:39:31;12.30;99.90
55648;DHT22;45266;48.756;9.246;2023-03-24T05:40:33;12.30;99.90
55648;DHT22;45266;48.756;9.246;2023-03-24T05:41:36;12.40;99.90
55648;DHT22;45266;48.756;9.246;2023-03-24T05:42:38;12.40;99.90
55648;DHT22;45266;48.756;9.246;2023-03-24T05:43:40;12.50;99.90
55648;DHT22;45266;48.756;9.246;2023-03-24T05:44:42;12.50;99.90
55648;DHT22;45266;48.756;9.246;2023-03-24T05:45:43;12.60;99.90
55648;DHT22;45266;48.756;9.246;2023-03-24T05:46:46;12.60;99.90
55648;DHT22;45266;48.756;9.246;2023-03-24T05:47:47;12.60;99.90
55648;DHT22;45266;48.756;9.246;2023-03-24T05:48:49;12.70;99.90
55648;DHT22;45266;48.756;9.246;2023-03-24T05:49:51;12.70;99.90
55648;DHT22;45266;48.756;9.246;2023-03-24T05:50:53;12.70;99.90
55648;DHT22;45266;48.756;9.246;2023-03-24T05:51:55;12.70;99.90
55648;DHT22;45266;48.756;9.246;2023-03-24T05:52:57;12.70;99.90
55648;DHT22;45266;48.756;9.246;2023-03-24T05:53:59;12.70;99.90
55648;DHT22;45266;48.756;9.246;2023-03-24T05:55:01;12.70;99.90
55648;DHT22;45266;48.756;9.246;2023-03-24T05:56:02;12.70;99.90
55648;DHT22;45266;48.756;9.246;2023-03-24T05:57:06;12.70;99.90
55648;DHT22;45266;48.756;9.246;2023-03-24T05:58:11;12.70;99.90
55648;DHT22;45266;48.756;9.246;2023-03-24T05:59:13;12.60;99.90
55648;DHT22;45266;48.756;9.246;2023-03-24T06:00:16;12.60;99.90
55648;DHT22;45266;48.756;9.246;2023-03-24T06:01:19;12.60;99.90
55648;DHT22;45266;48.756;9.246;2023-03-24T06:02:20;12.60;99.90
55648;DHT22;45266;48.756;9.246;2023-03-24T06:03:22;12.60;99.90
55648;DHT22;45266;48.756;9.246;2023-03-24T06:04:24;12.50;99.90
55648;DHT22;45266;48.756;9.246;2023-03-24T06:05:31;12.50;99.90
55648;DHT22;45266;48.756;9.246;2023-03-24T06:06:33;12.50;99.90
55648;DHT22;45266;48.756;9.246;2023-03-24T06:07:37;12.50;99.90
55648;DHT22;45266;48.756;9.246;2023-03-24T06:08:42;12.40;99.90
55648;DHT22;45266;48.756;9.246;2023-03-24T06:09:45;12.40;99.90
55648;DHT22;45266;48.756;9.246;2023-03-24T06:10:47;12.30;99.90
55648;DHT22;45266;48.756;9.246;2023-03-24T06:11:50;12.30;99.90
55648;DHT22;45266;48.756;9.246;2023-03-24T06:12:52;12.30;99.90
55648;DHT22;45266;48.756;9.246;2023-03-24T06:13:54;12.20;99.90
55648;DHT22;45266;48.756;9.246;2023-03-24T06:15:00;12.20;99.90
55648;DHT22;45266;48.756;9.246;2023-03-24T06:16:02;12.20;99.90
55648;DHT22;45266;48.756;9.246;2023-03-24T06:17:06;12.10;99.90
55648;DHT22;45266;48.756;9.246;2023-03-24T06:18:08;12.10;99.90
55648;DHT22;45266;48.756;9.246;2023-03-24T06:19:10;12.10;99.90
55648;DHT22;45266;48.756;9.246;2023-03-24T06:20:12;12.10;99.90
55648;DHT22;45266;48.756;9.246;2023-03-24T06:21:19;11.90;99.90
55648;DHT22;45266;48.756;9.246;2023-03-24T06:22:21;12.00;99.90
55648;DHT22;45266;48.756;9.246;2023-03-24T06:23:23;12.00;99.90
55648;DHT22;45266;48.756;9.246;2023-03-24T06:24:26;12.00;99.90
55648;DHT22;45266;48.756;9.246;2023-03-24T06:25:28;12.00;99.90
55648;DHT22;45266;48.756;9.246;2023-03-24T06:26:30;12.00;99.90
55648;DHT22;45266;48.756;9.246;2023-03-24T06:27:32;12.00;99.90
55648;DHT22;45266;48.756;9.246;2023-03-24T06:28:34;12.00;99.90
55648;DHT22;45266;48.756;9.246;2023-03-24T06:29:35;11.90;99.90
55648;DHT22;45266;48.756;9.246;2023-03-24T06:30:37;11.90;99.90
55648;DHT22;45266;48.756;9.246;2023-03-24T06:31:39;11.90;99.90
55648;DHT22;45266;48.756;9.246;2023-03-24T06:32:41;11.90;99.90
55648;DHT22;45266;48.756;9.246;2023-03-24T06:33:47;11.90;99.90
55648;DHT22;45266;48.756;9.246;2023-03-24T06:34:49;11.90;99.90
55648;DHT22;45266;48.756;9.246;2023-03-24T06:35:51;11.90;99.90
55648;DHT22;45266;48.756;9.246;2023-03-24T06:36:54;11.90;99.90
55648;DHT22;45266;48.756;9.246;2023-03-24T06:37:56;11.90;99.90
55648;DHT22;45266;48.756;9.246;2023-03-24T06:38:58;11.90;99.90
55648;DHT22;45266;48.756;9.246;2023-03-24T06:39:59;11.90;99.90
55648;DHT22;45266;48.756;9.246;2023-03-24T06:41:03;11.90;99.90
55648;DHT22;45266;48.756;9.246;2023-03-24T06:42:05;11.90;99.90
55648;DHT22;45266;48.756;9.246;2023-03-24T06:43:07;11.90;99.90
55648;DHT22;45266;48.756;9.246;2023-03-24T06:44:09;11.90;99.90
55648;DHT22;45266;48.756;9.246;2023-03-24T06:45:11;11.90;99.90
55648;DHT22;45266;48.756;9.246;2023-03-24T06:46:12;11.90;99.90
55648;DHT22;45266;48.756;9.246;2023-03-24T06:47:14;11.90;99.90
55648;DHT22;45266;48.756;9.246;2023-03-24T06:48:17;11.90;99.90
55648;DHT22;45266;48.756;9.246;2023-03-24T06:49:18;11.90;99.90
55648;DHT22;45266;48.756;9.246;2023-03-24T06:50:20;11.90;99.90
55648;DHT22;45266;48.756;9.246;2023-03-24T06:51:22;11.90;99.90
55648;DHT22;45266;48.756;9.246;2023-03-24T06:52:24;11.90;99.90
55648;DHT22;45266;48.756;9.246;2023-03-24T06:53:25;11.90;99.90
55648;DHT22;45266;48.756;9.246;2023-03-24T06:54:27;11.90;99.90
55648;DHT22;45266;48.756;9.246;2023-03-24T06:55:29;11.90;99.90
55648;DHT22;45266;48.756;9.246;2023-03-24T06:56:31;11.90;99.90
55648;DHT22;45266;48.756;9.246;2023-03-24T06:57:35;11.90;99.90
55648;DHT22;45266;48.756;9.246;2023-03-24T06:58:36;11.90;99.90
55648;DHT22;45266;48.756;9.246;2023-03-24T06:59:38;12.00;99.90
55648;DHT22;45266;48.756;9.246;2023-03-24T07:00:40;12.00;99.90
55648;DHT22;45266;48.756;9.246;2023-03-24T07:01:42;12.00;99.90
55648;DHT22;45266;48.756;9.246;2023-03-24T07:02:44;12.00;99.90
55648;DHT22;45266;48.756;9.246;2023-03-24T07:03:47;12.00;99.90
55648;DHT22;45266;48.756;9.246;2023-03-24T07:04:49;12.10;99.90
55648;DHT22;45266;48.756;9.246;2023-03-24T07:05:54;12.10;99.90
55648;DHT22;45266;48.756;9.246;2023-03-24T07:06:57;12.10;99.90
55648;DHT22;45266;48.756;9.246;2023-03-24T07:08:19;12.20;99.90
55648;DHT22;45266;48.756;9.246;2023-03-24T07:09:24;12.20;99.90
55648;DHT22;45266;48.756;9.246;2023-03-24T07:10:26;12.30;99.90
55648;DHT22;45266;48.756;9.246;2023-03-24T07:11:28;12.30;99.90
55648;DHT22;45266;48.756;9.246;2023-03-24T07:12:30;12.30;99.90
55648;DHT22;45266;48.756;9.246;2023-03-24T07:13:32;12.30;99.90
55648;DHT22;45266;48.756;9.246;2023-03-24T07:14:34;12.50;99.90
55648;DHT22;45266;48.756;9.246;2023-03-24T07:15:36;12.50;99.90
55648;DHT22;45266;48.756;9.246;2023-03-24T07:16:37;12.50;99.90
55648;DHT22;45266;48.756;9.246;2023-03-24T07:17:42;12.50;99.90
55648;DHT22;45266;48.756;9.246;2023-03-24T07:18:44;12.50;99.90
55648;DHT22;45266;48.756;9.246;2023-03-24T07:19:46;12.60;99.90
55648;DHT22;45266;48.756;9.246;2023-03-24T07:20:48;12.60;99.90
55648;DHT22;45266;48.756;9.246;2023-03-24T07:21:50;12.60;99.90
55648;DHT22;45266;48.756;9.246;2023-03-24T07:22:55;12.60;99.90
55648;DHT22;45266;48.756;9.246;2023-03-24T07:23:57;12.60;99.90
55648;DHT22;45266;48.756;9.246;2023-03-24T07:24:58;12.60;99.90
55648;DHT22;45266;48.756;9.246;2023-03-24T07:26:05;12.70;99.90
55648;DHT22;45266;48.756;9.246;2023-03-24T07:27:07;12.70;99.90
55648;DHT22;45266;48.756;9.246;2023-03-24T07:28:09;12.60;99.90
55648;DHT22;45266;48.756;9.246;2023-03-24T07:29:11;12.60;99.90
55648;DHT22;45266;48.756;9.246;2023-03-24T07:30:13;12.60;99.90
55648;DHT22;45266;48.756;9.246;2023-03-24T07:31:15;12.60;99.90
55648;DHT22;45266;48.756;9.246;2023-03-24T07:32:17;12.60;99.90
55648;DHT22;45266;48.756;9.246;2023-03-24T07:33:19;12.70;99.90
55648;DHT22;45266;48.756;9.246;2023-03-24T07:34:21;12.70;99.90
55648;DHT22;45266;48.756;9.246;2023-03-24T07:35:23;12.60;99.90
55648;DHT22;45266;48.756;9.246;2023-03-24T07:36:24;12.70;99.90
55648;DHT22;45266;48.756;9.246;2023-03-24T07:37:27;12.70;99.90
55648;DHT22;45266;48.756;9.246;2023-03-24T07:38:29;12.70;99.90
55648;DHT22;45266;48.756;9.246;2023-03-24T07:39:31;12.70;99.90
55648;DHT22;45266;48.756;9.246;2023-03-24T07:40:33;12.70;99.90
55648;DHT22;45266;48.756;9.246;2023-03-24T07:41:36;12.60;99.90
55648;DHT22;45266;48.756;9.246;2023-03-24T07:42:39;12.60;99.90
55648;DHT22;45266;48.756;9.246;2023-03-24T07:43:42;12.60;99.90
55648;DHT22;45266;48.756;9.246;2023-03-24T07:44:44;12.60;99.90
55648;DHT22;45266;48.756;9.246;2023-03-24T07:45:47;12.60;99.90
55648;DHT22;45266;48.756;9.246;2023-03-24T07:46:49;12.60;99.90